Salisbury, MD

3:59 AM EDT on June 03, 2015 (GMT -0400)
Pemberton | | Change Station
CLOSE
Current Station
Personal Weather Station
Location: Salisbury, MD
Elevation: 26 ft
Nearby Weather Stations

Elev 26 ft 38.36 °N, 75.62 °W | Updated 40 seconds ago

Overcast
Overcast
56.4 °F
Feels Like 56.4 °F
N
3.3
Wind Variable Wind from NE
Gusts 6.0 mph

Today
High -- | Low -- °F
--% Chance of Precip.
Yesterday
High -- | Low -- °F
Precip. -- in
5:39 AM 8:21 PM
Full, 100% visible
Pressure 30.10 in
Visibility 8.0 miles
Clouds Mostly Cloudy 500 ft
Overcast 1100 ft
Dew Point 56 °F
Humidity 99%
Rainfall 0.00 in
Snow Depth Not available.
UV 0 out of 12
Pollen .90 out of 12
Air Quality Not available.
Flu Activity Sporadic
METAR KSBY 030754Z AUTO 03009KT 8SM -RA BKN005 OVC011 14/13 A3009 RMK AO2 RAB11 CIG 004V009 SLP191 P0004 T01390133

More Conditions Fewer Conditions

Pressure 30.10 in
Visibility 8.0 miles
Clouds Mostly Cloudy 500 ft
Overcast 1100 ft
Dew Point 56 °F
Humidity 99%
Rainfall 0.00 in
Snow Depth Not available.
UV 0 out of 12
Pollen .90 out of 12
Air Quality Not available.
Flu Activity Sporadic
METAR KSBY 030754Z AUTO 03009KT 8SM -RA BKN005 OVC011 14/13 A3009 RMK AO2 RAB11 CIG 004V009 SLP191 P0004 T01390133

More Conditions Fewer Conditions

10-Day Weather Forecast

×

Almanac

Astronomy

Jun. 03, 2015 Rise Set
Actual Time
Civil Twilight
Nautical Twilight
Astronomical Twilight
Moon
Length of Visible Light
Length of Day
Tomorrow will be .
, % of the Moon is Illuminated

Today's Extremes

State Highs State Lows

Community

WunderPhotos

Upload Photos

1,826,187 photos uploaded!

WunderBlogs® & News

Nearby

Air Quality

  Air Quality AQ Index Pollutant
Not available.

Snow Depth

Station Depth Elevation

Earthquake Activity

City Distance Mag. Time & Date
Minimum magnitude displayed is 2.5.

Coastal Water Temperatures

Place Temperature

Stations

Nearby Weather Stations

Station Location Temp. Windchill Dew Point Humidity Wind Precip. Elev Updated Type